Time;durP1;ratioP1;P1;durP2;ratioP2;P2;SDS_P1;SDS_P2;PMS_P1;PMS_P2;Temp;Humidity;BMP_temperature;BMP_pressure;BME280_temperature;BME280_humidity;BME280_pressure;Samples;Min_cycle;Max_cycle;Signal;HPM_P1;HPM_P2
2021/05/29 00:00:56;;;;;;;14.15;12.75;;;17.60;99.90;;;;;;5060075;28;20100;-80
2021/05/29 00:03:23;;;;;;;14.95;13.45;;;17.60;99.90;;;;;;5059776;28;20025;-80
2021/05/29 00:05:50;;;;;;;16.98;13.70;;;17.60;99.90;;;;;;5059301;28;20044;-80
2021/05/29 00:08:18;;;;;;;17.75;15.88;;;17.60;99.90;;;;;;5041687;28;20048;-82
2021/05/29 00:10:50;;;;;;;20.77;16.67;;;17.60;99.90;;;;;;5058479;28;20021;-81
2021/05/29 00:13:17;;;;;;;17.17;15.10;;;17.60;99.90;;;;;;5059754;28;20025;-80
2021/05/29 00:15:43;;;;;;;16.77;14.98;;;17.60;99.90;;;;;;5058608;28;20025;-82
2021/05/29 00:18:09;;;;;;;15.20;13.70;;;17.50;99.90;;;;;;5059935;28;20036;-81
2021/05/29 00:20:39;;;;;;;15.70;13.95;;;17.50;99.90;;;;;;5059943;28;20056;-80
2021/05/29 00:23:05;;;;;;;15.88;14.23;;;17.50;99.90;;;;;;5058358;28;20074;-80
2021/05/29 00:25:30;;;;;;;15.30;13.80;;;17.50;99.90;;;;;;5057327;28;20041;-81
2021/05/29 00:27:56;;;;;;;15.73;13.60;;;17.50;99.90;;;;;;5005330;28;20546;-81
2021/05/29 00:30:27;;;;;;;15.73;14.13;;;17.40;99.90;;;;;;5037289;28;20026;-83
2021/05/29 00:32:53;;;;;;;16.67;14.95;;;17.30;99.90;;;;;;5002651;28;20033;-81
2021/05/29 00:35:19;;;;;;;16.38;14.63;;;17.30;99.90;;;;;;5020472;28;20022;-83
2021/05/29 00:37:45;;;;;;;17.25;15.32;;;17.30;99.90;;;;;;5034998;28;20044;-81
2021/05/29 00:40:19;;;;;;;16.63;14.95;;;17.20;99.90;;;;;;5035089;28;20109;-81
2021/05/29 00:42:45;;;;;;;16.42;14.68;;;17.30;99.90;;;;;;5036226;28;20032;-81
2021/05/29 00:45:18;;;;;;;16.92;15.18;;;17.30;99.90;;;;;;5034921;28;20021;-81
2021/05/29 00:47:44;;;;;;;18.45;16.58;;;17.30;99.90;;;;;;5019036;28;20061;-81
2021/05/29 00:50:13;;;;;;;17.35;15.63;;;17.30;99.90;;;;;;5036021;28;20040;-81
2021/05/29 00:52:41;;;;;;;18.13;16.27;;;17.20;99.90;;;;;;5036047;28;20025;-81
2021/05/29 00:55:10;;;;;;;16.95;15.20;;;17.20;99.90;;;;;;5035023;28;20037;-81
2021/05/29 00:57:47;;;;;;;18.20;16.37;;;17.30;99.90;;;;;;5034557;28;20036;-80
2021/05/29 01:00:16;;;;;;;18.58;16.65;;;17.20;99.90;;;;;;5018306;28;20298;-81
2021/05/29 01:02:42;;;;;;;19.05;17.15;;;17.20;99.90;;;;;;5035945;28;20024;-81
2021/05/29 01:05:10;;;;;;;17.88;15.95;;;17.10;99.90;;;;;;5033045;28;20025;-81
2021/05/29 01:07:36;;;;;;;22.42;17.52;;;17.10;99.90;;;;;;5035834;28;20025;-81
2021/05/29 01:10:04;;;;;;;19.00;16.65;;;17.20;99.90;;;;;;5034424;28;20494;-81
2021/05/29 01:12:30;;;;;;;24.42;19.88;;;17.20;99.90;;;;;;5035661;28;20108;-79
2021/05/29 01:14:58;;;;;;;28.48;21.80;;;17.20;99.90;;;;;;5035629;28;20469;-81
2021/05/29 01:17:24;;;;;;;24.80;19.00;;;17.20;99.90;;;;;;5034358;28;20030;-81
2021/05/29 01:19:54;;;;;;;28.63;20.10;;;17.20;99.90;;;;;;5034230;28;20028;-80
2021/05/29 01:22:48;;;;;;;26.97;17.93;;;17.30;99.90;;;;;;5035830;28;20029;-81
2021/05/29 01:25:13;;;;;;;22.73;17.30;;;17.40;99.90;;;;;;5034278;28;20102;-80
2021/05/29 01:27:40;;;;;;;24.27;18.30;;;17.40;99.90;;;;;;5034028;28;20483;-80
2021/05/29 01:30:07;;;;;;;23.52;20.00;;;17.50;99.90;;;;;;5035371;28;20491;-79
2021/05/29 01:32:33;;;;;;;21.95;18.90;;;17.50;99.90;;;;;;5034582;28;20069;-80
2021/05/29 01:35:04;;;;;;;22.95;18.20;;;17.50;99.90;;;;;;5034554;28;20460;-80
2021/05/29 01:37:30;;;;;;;26.30;19.30;;;17.50;99.90;;;;;;5018414;28;20040;-80
2021/05/29 01:39:56;;;;;;;23.90;19.63;;;17.50;99.90;;;;;;5035496;28;20025;-80
2021/05/29 01:42:22;;;;;;;26.23;19.33;;;17.60;99.90;;;;;;5033922;28;20018;-79
2021/05/29 01:44:49;;;;;;;25.02;18.35;;;17.60;99.90;;;;;;5035061;28;20028;-80
2021/05/29 01:47:14;;;;;;;26.17;18.40;;;17.70;99.90;;;;;;5001052;28;20487;-80
2021/05/29 01:49:42;;;;;;;26.15;17.95;;;17.70;99.90;;;;;;5017352;28;20109;-80
2021/05/29 01:52:08;;;;;;;29.42;19.63;;;17.70;99.90;;;;;;5034888;28;20040;-80
2021/05/29 01:54:37;;;;;;;24.13;18.70;;;17.70;99.90;;;;;;5035219;28;20029;-80
2021/05/29 01:57:03;;;;;;;27.90;21.48;;;17.80;99.90;;;;;;5001137;28;20083;-80
2021/05/29 01:59:29;;;;;;;23.58;18.95;;;17.70;99.90;;;;;;5017015;28;20079;-80
2021/05/29 02:01:54;;;;;;;29.23;22.02;;;17.70;99.90;;;;;;5017300;28;20127;-80
2021/05/29 02:04:20;;;;;;;28.23;19.98;;;17.80;99.90;;;;;;5034208;28;20025;-80
2021/05/29 02:06:45;;;;;;;25.98;20.02;;;17.80;99.90;;;;;;5034898;28;20413;-80
2021/05/29 02:09:11;;;;;;;27.77;19.55;;;17.80;99.90;;;;;;5033391;28;20494;-80
2021/05/29 02:11:39;;;;;;;25.75;19.75;;;17.80;99.90;;;;;;5017139;28;20390;-80
2021/05/29 02:14:06;;;;;;;26.83;20.08;;;17.90;99.90;;;;;;5033217;28;20029;-80
2021/05/29 02:16:32;;;;;;;25.42;19.67;;;17.90;99.90;;;;;;5016798;28;20056;-80
2021/05/29 02:18:57;;;;;;;26.63;19.83;;;17.90;99.90;;;;;;5034732;28;20084;-79
2021/05/29 02:21:24;;;;;;;26.02;20.35;;;17.90;99.90;;;;;;5033021;28;20376;-79
2021/05/29 02:23:51;;;;;;;25.90;21.00;;;17.90;99.90;;;;;;5033285;28;20028;-81
2021/05/29 02:26:19;;;;;;;25.13;19.95;;;17.90;99.90;;;;;;5032892;28;20046;-81
2021/05/29 02:28:54;;;;;;;26.50;19.85;;;17.80;99.90;;;;;;5034220;28;20479;-80
2021/05/29 02:31:20;;;;;;;24.58;20.45;;;17.80;99.90;;;;;;5034314;28;20108;-80
2021/05/29 02:33:46;;;;;;;22.67;19.50;;;17.80;99.90;;;;;;5016588;28;20056;-80
2021/05/29 02:36:11;;;;;;;25.73;20.08;;;17.70;99.90;;;;;;5031317;28;20120;-80
2021/05/29 02:38:38;;;;;;;23.40;20.05;;;17.70;99.90;;;;;;5032859;28;20022;-80
2021/05/29 02:41:07;;;;;;;26.15;20.55;;;17.70;99.90;;;;;;5032853;28;20551;-80
2021/05/29 02:43:33;;;;;;;24.98;21.08;;;17.60;99.90;;;;;;5016382;28;20042;-80
2021/05/29 02:45:58;;;;;;;25.83;20.90;;;17.60;99.90;;;;;;5032773;28;20026;-80
2021/05/29 02:48:24;;;;;;;26.20;20.48;;;17.60;99.90;;;;;;5032749;28;20449;-80
2021/05/29 02:50:52;;;;;;;27.65;21.80;;;17.60;99.90;;;;;;5032699;28;20025;-80
2021/05/29 02:53:20;;;;;;;28.42;22.42;;;17.60;99.90;;;;;;5033440;28;20386;-80
2021/05/29 02:55:46;;;;;;;30.83;23.60;;;17.60;99.90;;;;;;5032599;28;20028;-80
2021/05/29 02:58:14;;;;;;;33.13;23.92;;;17.60;99.90;;;;;;5033779;28;20026;-80
2021/05/29 03:00:47;;;;;;;32.28;23.88;;;17.70;99.90;;;;;;5032777;28;20063;-80
2021/05/29 03:03:16;;;;;;;33.22;22.85;;;17.60;99.90;;;;;;5032438;28;20056;-79
2021/05/29 03:05:46;;;;;;;33.72;23.38;;;17.70;99.90;;;;;;5018443;28;20017;-80
2021/05/29 03:08:13;;;;;;;;;;;17.70;99.90;;;;;;5016381;28;20033;-80
2021/05/29 03:10:41;;;;;;;35.67;23.02;;;17.70;99.90;;;;;;5015863;28;19968;-79
2021/05/29 03:13:08;;;;;;;36.25;24.05;;;17.80;99.90;;;;;;5033648;28;20029;-79
2021/05/29 03:15:34;;;;;;;37.40;25.35;;;17.80;99.90;;;;;;5033603;28;20025;-80
2021/05/29 03:18:02;;;;;;;39.15;26.60;;;17.90;99.90;;;;;;5015882;28;20021;-80
2021/05/29 03:20:29;;;;;;;38.83;24.83;;;17.90;99.90;;;;;;5015936;28;20032;-80
2021/05/29 03:22:59;;;;;;;33.15;24.33;;;17.90;99.90;;;;;;5015696;28;20124;-79
2021/05/29 03:25:25;;;;;;;;;;;18.00;99.90;;;;;;5016076;28;20055;-80
2021/05/29 03:27:54;;;;;;;37.72;26.65;;;18.00;99.90;;;;;;5033829;28;19912;-80
2021/05/29 03:30:24;;;;;;;37.97;26.30;;;18.00;99.90;;;;;;5016674;28;20108;-79
2021/05/29 03:32:51;;;;;;;35.17;24.85;;;18.00;99.90;;;;;;5015735;28;20036;-80
2021/05/29 03:35:22;;;;;;;36.92;26.80;;;18.00;99.90;;;;;;5015657;28;20030;-80
2021/05/29 03:37:51;;;;;;;37.90;26.52;;;18.00;99.90;;;;;;5016602;28;20036;-80
2021/05/29 03:40:21;;;;;;;38.25;28.17;;;17.90;99.90;;;;;;5033453;28;20017;-80
2021/05/29 03:42:47;;;;;;;;;;;18.00;99.90;;;;;;5016423;28;20022;-80
2021/05/29 03:45:21;;;;;;;32.20;23.52;;;17.90;99.90;;;;;;5033656;28;19905;-80
2021/05/29 03:47:50;;;;;;;34.80;25.13;;;17.90;99.90;;;;;;5033322;28;20021;-81
2021/05/29 03:50:22;;;;;;;32.58;22.48;;;17.90;99.90;;;;;;5015567;28;20026;-80
2021/05/29 03:52:48;;;;;;;32.70;24.08;;;17.90;99.90;;;;;;5033338;28;20048;-81
2021/05/29 03:55:18;;;;;;;35.78;25.65;;;18.00;99.90;;;;;;5015617;28;20487;-81
2021/05/29 03:57:46;;;;;;;34.20;25.02;;;18.00;99.90;;;;;;4999373;28;20064;-81
2021/05/29 04:00:16;;;;;;;31.13;23.60;;;18.00;99.90;;;;;;5015617;28;20026;-81
2021/05/29 04:02:47;;;;;;;32.47;25.42;;;18.00;99.90;;;;;;5015449;28;20438;-81
2021/05/29 04:05:17;;;;;;;32.25;24.58;;;17.90;99.90;;;;;;5016218;28;20021;-81
2021/05/29 04:07:43;;;;;;;32.67;24.52;;;17.90;99.90;;;;;;5036961;28;20116;-81
2021/05/29 04:10:21;;;;;;;30.33;22.70;;;18.00;99.90;;;;;;5019052;28;20090;-81
2021/05/29 04:12:48;;;;;;;27.05;21.67;;;18.00;99.90;;;;;;5036790;28;20479;-80
2021/05/29 04:15:18;;;;;;;29.98;23.98;;;18.00;99.90;;;;;;5019070;28;20438;-81
2021/05/29 04:17:49;;;;;;;;;;;18.10;99.90;;;;;;5037133;28;20030;-81
2021/05/29 04:20:20;;;;;;;25.67;19.63;;;18.00;99.90;;;;;;5018861;28;19916;-81
2021/05/29 04:22:46;;;;;;;27.52;21.98;;;18.10;99.90;;;;;;5018896;28;20025;-82
2021/05/29 04:25:17;;;;;;;27.30;21.88;;;18.20;99.90;;;;;;5018978;28;20060;-81
2021/05/29 04:27:47;;;;;;;28.15;23.10;;;18.20;99.90;;;;;;5036791;28;20076;-82
2021/05/29 04:30:17;;;;;;;25.08;20.95;;;18.30;99.90;;;;;;5035511;28;20036;-81
2021/05/29 04:32:42;;;;;;;26.30;22.25;;;18.40;99.90;;;;;;5018697;28;20059;-82
2021/05/29 04:35:18;;;;;;;27.77;23.17;;;18.40;99.90;;;;;;5035653;28;20116;-82
2021/05/29 04:37:47;;;;;;;25.88;21.75;;;18.50;99.90;;;;;;5035104;28;20483;-83
2021/05/29 04:40:14;;;;;;;24.17;21.58;;;18.50;99.90;;;;;;5036310;28;20109;-82
2021/05/29 04:42:43;;;;;;;24.33;21.73;;;18.60;99.90;;;;;;5036598;28;20022;-81
2021/05/29 04:45:12;;;;;;;23.40;20.80;;;18.60;99.90;;;;;;5036307;28;20030;-82
2021/05/29 04:47:39;;;;;;;21.70;19.40;;;18.70;99.90;;;;;;5018402;28;20065;-82
2021/05/29 04:50:06;;;;;;;26.42;22.77;;;18.80;99.90;;;;;;5034955;28;20080;-82
2021/05/29 04:52:33;;;;;;;23.75;20.95;;;18.90;99.90;;;;;;5036127;28;20034;-82
2021/05/29 04:54:59;;;;;;;21.45;19.20;;;19.00;99.90;;;;;;5018450;28;20079;-82
2021/05/29 04:57:27;;;;;;;18.90;16.90;;;19.10;99.90;;;;;;5035949;28;20033;-82
2021/05/29 04:59:53;;;;;;;18.55;16.60;;;19.10;99.90;;;;;;5034719;28;20120;-83
2021/05/29 05:02:18;;;;;;;24.92;18.13;;;19.20;99.90;;;;;;5034989;28;20056;-81
2021/05/29 05:04:46;;;;;;;18.20;16.38;;;19.30;99.90;;;;;;5035379;28;20390;-81
2021/05/29 05:07:12;;;;;;;17.50;15.68;;;19.30;99.90;;;;;;5018336;28;20391;-84
2021/05/29 05:09:38;;;;;;;17.05;15.38;;;19.40;99.90;;;;;;5017934;28;20036;-81
2021/05/29 05:12:07;;;;;;;16.25;14.65;;;19.30;99.90;;;;;;5018206;28;20116;-86
2021/05/29 05:14:33;;;;;;;15.05;13.55;;;19.30;99.90;;;;;;5018760;28;20029;-87
2021/05/29 05:16:59;;;;;;;16.42;14.73;;;19.30;99.90;;;;;;5018185;28;20033;-86
2021/05/29 05:19:25;;;;;;;14.32;13.00;;;19.30;99.90;;;;;;5018486;28;20026;-89
2021/05/29 05:21:51;;;;;;;15.30;13.50;;;19.30;99.90;;;;;;5018527;28;20021;-85
2021/05/29 05:24:19;;;;;;;16.15;14.40;;;19.30;99.90;;;;;;5035001;28;20080;-88
2021/05/29 05:26:48;;;;;;;16.02;13.65;;;19.20;99.90;;;;;;5039087;28;20053;-89
2021/05/29 05:29:14;;;;;;;14.57;13.18;;;19.20;99.90;;;;;;5056430;28;20041;-88
2021/05/29 05:31:42;;;;;;;14.63;13.23;;;19.20;99.90;;;;;;5056462;28;20033;-87
2021/05/29 05:34:10;;;;;;;13.85;12.50;;;19.10;99.90;;;;;;5055389;28;20494;-87
2021/05/29 05:36:39;;;;;;;15.10;13.57;;;19.20;99.90;;;;;;5055857;28;20111;-89
2021/05/29 05:39:14;;;;;;;15.98;13.68;;;19.30;99.90;;;;;;5054681;28;20032;-87
2021/05/29 05:41:43;;;;;;;16.33;14.63;;;19.20;99.90;;;;;;5018852;28;20033;-89
2021/05/29 05:44:09;;;;;;;14.98;13.48;;;19.30;99.90;;;;;;5035715;28;20029;-88
2021/05/29 05:46:38;;;;;;;14.50;12.95;;;19.30;99.90;;;;;;5036037;28;20030;-88
2021/05/29 05:49:06;;;;;;;14.18;12.85;;;19.30;99.90;;;;;;5018239;28;20517;-88
2021/05/29 05:51:34;;;;;;;13.68;12.32;;;19.30;99.90;;;;;;5034625;28;20026;-90
2021/05/29 05:54:00;;;;;;;14.48;13.07;;;19.30;99.90;;;;;;5034110;28;20430;-84
2021/05/29 05:56:26;;;;;;;14.98;13.48;;;19.40;99.90;;;;;;5034196;28;20025;-84
2021/05/29 05:58:57;;;;;;;13.05;11.75;;;19.40;99.90;;;;;;5035807;28;20023;-83
2021/05/29 06:01:24;;;;;;;13.70;12.35;;;19.40;99.90;;;;;;5036666;28;20021;-89
2021/05/29 06:03:50;;;;;;;13.10;11.77;;;19.40;99.90;;;;;;5051173;28;20045;-91
2021/05/29 06:06:15;;;;;;;13.30;11.90;;;19.40;99.90;;;;;;5034322;28;20484;-89
2021/05/29 06:08:42;;;;;;;13.65;12.25;;;19.40;99.90;;;;;;5035597;28;20037;-91
2021/05/29 06:11:17;;;;;;;13.15;11.85;;;19.40;99.90;;;;;;5053400;28;20100;-88
2021/05/29 06:21:48;;;;;;;12.55;11.30;;;19.30;99.90;;;;;;5055168;28;20021;-90
2021/05/29 06:24:18;;;;;;;13.27;11.90;;;19.30;99.90;;;;;;5055350;28;20021;-90
2021/05/29 06:26:47;;;;;;;12.40;11.10;;;19.30;99.90;;;;;;5042120;28;20483;-90
2021/05/29 06:29:13;;;;;;;13.00;11.70;;;19.40;99.90;;;;;;5033208;28;20033;-91
2021/05/29 06:31:38;;;;;;;13.38;11.98;;;19.40;99.90;;;;;;5033930;28;20115;-91
2021/05/29 06:34:07;;;;;;;12.00;10.85;;;19.30;99.90;;;;;;5034024;28;20033;-92
2021/05/29 06:36:35;;;;;;;12.18;11.00;;;19.30;99.90;;;;;;5033924;28;20095;-93
2021/05/29 06:39:04;;;;;;;12.85;11.65;;;19.40;99.90;;;;;;5033841;28;20109;-93
2021/05/29 06:41:35;;;;;;;12.45;11.25;;;19.40;99.90;;;;;;5035020;28;20049;-93
2021/05/29 06:44:03;;;;;;;12.90;11.60;;;19.40;99.90;;;;;;5035070;28;20013;-92
2021/05/29 06:46:30;;;;;;;11.88;10.73;;;19.40;99.90;;;;;;5034796;28;20475;-94
2021/05/29 06:48:56;;;;;;;13.05;11.75;;;19.50;99.90;;;;;;5034773;28;20056;-93
2021/05/29 06:54:12;;;;;;;12.82;11.52;;;19.60;99.90;;;;;;5034776;28;20034;-89
2021/05/29 06:59:26;;;;;;;11.65;10.57;;;19.60;99.90;;;;;;5034628;28;20055;-85
2021/05/29 07:01:53;;;;;;;11.33;10.33;;;19.70;99.90;;;;;;5033876;28;20024;-84
2021/05/29 07:04:19;;;;;;;12.02;10.93;;;19.80;99.90;;;;;;5032468;28;20028;-84
2021/05/29 07:06:45;;;;;;;12.10;10.90;;;19.80;99.90;;;;;;5032687;28;20026;-83
2021/05/29 07:09:17;;;;;;;12.05;10.88;;;19.80;99.90;;;;;;5033255;28;20040;-84
2021/05/29 07:11:48;;;;;;;11.20;10.20;;;19.90;99.90;;;;;;5033909;28;20025;-84
2021/05/29 07:14:14;;;;;;;12.38;10.85;;;19.90;99.90;;;;;;5032474;28;20029;-84
2021/05/29 07:16:42;;;;;;;12.85;11.55;;;19.90;99.90;;;;;;5033586;28;20079;-84
2021/05/29 07:19:07;;;;;;;13.57;12.27;;;20.00;99.90;;;;;;5032304;28;20563;-84
2021/05/29 07:21:38;;;;;;;11.48;10.45;;;20.00;99.90;;;;;;5016010;28;20057;-84
2021/05/29 07:24:04;;;;;;;11.55;10.38;;;20.00;99.90;;;;;;5033344;28;20037;-84
2021/05/29 07:26:32;;;;;;;11.40;10.40;;;20.00;99.90;;;;;;5032179;28;20048;-82
2021/05/29 07:29:00;;;;;;;12.50;11.25;;;20.10;99.90;;;;;;5016098;28;20109;-82
2021/05/29 07:31:25;;;;;;;11.82;10.77;;;20.10;99.90;;;;;;5033236;28;20498;-82
2021/05/29 07:33:55;;;;;;;12.23;11.10;;;20.10;99.90;;;;;;5033470;28;20025;-82
2021/05/29 07:36:22;;;;;;;12.37;11.23;;;20.20;99.90;;;;;;5032232;28;20045;-82
2021/05/29 07:38:50;;;;;;;12.20;11.02;;;20.20;99.90;;;;;;5032161;28;20549;-82
2021/05/29 07:41:16;;;;;;;11.50;10.40;;;20.30;99.90;;;;;;5019984;28;20034;-82
2021/05/29 07:43:45;;;;;;;12.32;11.23;;;20.30;99.90;;;;;;5037411;28;20529;-82
2021/05/29 07:46:24;;;;;;;11.18;10.13;;;20.40;99.90;;;;;;5036352;28;20084;-82
2021/05/29 07:49:12;;;;;;;12.02;10.93;;;20.30;99.90;;;;;;5037380;28;20102;-83
2021/05/29 07:51:39;;;;;;;11.30;10.20;;;20.40;99.90;;;;;;5019840;28;20033;-83
2021/05/29 07:54:11;;;;;;;11.35;10.25;;;20.30;99.90;;;;;;5034554;28;20132;-83
2021/05/29 07:56:37;;;;;;;12.82;11.73;;;20.30;99.90;;;;;;5036035;28;20112;-83
2021/05/29 07:59:17;;;;;;;;;;;;;;;;;;;;;
2021/05/29 08:01:46;;;;;;;12.77;11.55;;;20.40;99.90;;;;;;5034721;28;20038;-85
2021/05/29 08:04:18;;;;;;;12.55;11.35;;;20.50;99.90;;;;;;5036447;28;20408;-83
2021/05/29 08:06:44;;;;;;;12.57;11.30;;;20.50;99.90;;;;;;5035901;28;20026;-84
2021/05/29 08:09:17;;;;;;;12.98;11.77;;;20.60;99.90;;;;;;5034330;28;20030;-84
2021/05/29 08:11:45;;;;;;;13.95;12.52;;;20.60;99.90;;;;;;5003959;28;20046;-83
2021/05/29 08:14:16;;;;;;;12.90;11.63;;;20.70;99.90;;;;;;5037354;28;20036;-84
2021/05/29 08:16:42;;;;;;;13.07;11.98;;;20.80;99.90;;;;;;5035901;28;20075;-84
2021/05/29 08:19:15;;;;;;;13.98;12.48;;;20.90;99.90;;;;;;5035962;28;20390;-85
2021/05/29 08:21:49;;;;;;;12.20;11.20;;;21.00;99.90;;;;;;5035997;28;20017;-83
2021/05/29 08:24:18;;;;;;;12.73;11.52;;;21.10;99.90;;;;;;5036108;28;20120;-88
2021/05/29 08:26:44;;;;;;;12.25;11.10;;;21.20;99.90;;;;;;5060481;28;20106;-84
2021/05/29 08:29:13;;;;;;;12.40;11.23;;;21.30;99.90;;;;;;5058521;28;20029;-86
2021/05/29 08:31:47;;;;;;;12.80;11.60;;;21.40;99.90;;;;;;5077278;28;20024;-87
2021/05/29 08:34:15;;;;;;;12.13;10.93;;;21.50;99.90;;;;;;5058804;28;20032;-91
2021/05/29 08:36:44;;;;;;;11.90;10.80;;;21.50;99.90;;;;;;5076951;28;20478;-91
2021/05/29 08:39:11;;;;;;;11.95;10.75;;;21.50;99.90;;;;;;5058060;28;20106;-91
2021/05/29 08:41:38;;;;;;;11.60;10.50;;;21.40;99.90;;;;;;5059319;28;20100;-87
2021/05/29 08:44:11;;;;;;;12.35;11.25;;;21.50;99.90;;;;;;5076606;28;20458;-76
2021/05/29 08:46:41;;;;;;;11.90;10.90;;;21.50;99.90;;;;;;5058293;28;20107;-79
2021/05/29 08:49:07;;;;;;;12.57;11.13;;;21.50;99.90;;;;;;5041819;28;20373;-78
2021/05/29 08:51:38;;;;;;;12.93;11.82;;;21.50;99.90;;;;;;5057222;28;20039;-78
2021/05/29 08:54:07;;;;;;;12.75;11.65;;;21.40;99.90;;;;;;5058133;28;20572;-80
2021/05/29 08:56:36;;;;;;;13.52;12.32;;;21.40;99.90;;;;;;5076050;28;20470;-82
2021/05/29 08:59:04;;;;;;;12.57;11.38;;;21.30;99.90;;;;;;5075987;28;20021;-77
2021/05/29 09:01:46;;;;;;;12.27;11.27;;;21.20;99.90;;;;;;5074429;28;20046;-77
2021/05/29 09:04:14;;;;;;;14.48;12.10;;;21.10;99.90;;;;;;5057948;28;20043;-76
2021/05/29 09:06:46;;;;;;;13.60;12.32;;;20.90;99.90;;;;;;5076006;28;20033;-77
2021/05/29 09:09:18;;;;;;;16.08;14.57;;;20.90;99.90;;;;;;5057776;28;20477;-77
2021/05/29 09:12:02;;;;;;;16.13;14.63;;;20.80;99.90;;;;;;5075780;28;20029;-75
2021/05/29 09:14:30;;;;;;;17.60;15.80;;;20.80;99.90;;;;;;5076000;28;20025;-77
2021/05/29 09:17:10;;;;;;;19.10;17.30;;;20.90;99.90;;;;;;5074097;28;20063;-79
2021/05/29 09:19:52;;;;;;;18.65;16.95;;;20.90;99.90;;;;;;5075634;28;20017;-76
2021/05/29 09:22:20;;;;;;;18.45;16.55;;;21.00;99.90;;;;;;5075823;28;20466;-78
2021/05/29 09:25:02;;;;;;;19.83;17.73;;;21.00;99.90;;;;;;5057626;28;20055;-75
2021/05/29 09:27:33;;;;;;;20.90;18.80;;;21.10;99.90;;;;;;5057259;28;20048;-80
2021/05/29 09:30:10;;;;;;;21.95;19.75;;;21.10;99.90;;;;;;5075739;28;20033;-76
2021/05/29 09:32:39;;;;;;;20.67;18.48;;;21.20;99.90;;;;;;5057391;28;20036;-79
2021/05/29 09:35:09;;;;;;;21.67;19.48;;;21.10;99.90;;;;;;5075007;28;20035;-77
2021/05/29 09:37:35;;;;;;;20.52;18.40;;;21.10;99.90;;;;;;5057271;28;20039;-81
2021/05/29 09:40:11;;;;;;;20.50;18.40;;;21.10;99.90;;;;;;5039690;28;20475;-79
2021/05/29 09:42:41;;;;;;;17.52;15.77;;;21.10;99.90;;;;;;5055081;28;20021;-79
2021/05/29 09:45:21;;;;;;;18.35;16.45;;;21.10;99.90;;;;;;5037197;28;20025;-82
2021/05/29 09:48:15;;;;;;;18.92;17.02;;;21.00;99.90;;;;;;5037251;28;20025;-82
2021/05/29 09:51:02;;;;;;;18.38;16.45;;;21.00;99.90;;;;;;5054974;28;20101;-75
2021/05/29 09:53:43;;;;;;;17.73;15.82;;;21.10;99.90;;;;;;5037100;28;20029;-81
2021/05/29 09:56:34;;;;;;;19.00;17.00;;;21.10;99.90;;;;;;5054071;28;20037;-79
2021/05/29 09:59:07;;;;;;;17.67;15.77;;;21.10;99.90;;;;;;5054986;28;20024;-77
2021/05/29 10:01:49;;;;;;;18.08;16.23;;;21.20;99.90;;;;;;5036944;28;20024;-77
2021/05/29 10:07:41;;;;;;;19.55;17.45;;;21.20;99.90;;;;;;5041619;28;20171;-84
2021/05/29 10:10:08;;;;;;;19.75;17.65;;;21.30;99.90;;;;;;5054612;28;20364;-79
2021/05/29 10:12:37;;;;;;;21.38;19.02;;;21.40;99.90;;;;;;5053998;28;20498;-79
2021/05/29 10:15:11;;;;;;;18.10;16.33;;;21.50;99.90;;;;;;5020256;28;20033;-78
2021/05/29 10:17:38;;;;;;;16.45;14.70;;;21.40;99.90;;;;;;5036463;28;20029;-76
2021/05/29 10:20:07;;;;;;;17.90;15.70;;;21.40;99.90;;;;;;5036427;28;20082;-78
2021/05/29 10:22:33;;;;;;;17.33;15.57;;;21.40;99.90;;;;;;5054575;28;20017;-80
2021/05/29 10:25:02;;;;;;;16.42;14.70;;;21.40;99.90;;;;;;5054683;28;20032;-78
2021/05/29 10:27:31;;;;;;;16.85;14.30;;;21.40;99.90;;;;;;5036179;28;20052;-74
2021/05/29 10:30:00;;;;;;;13.77;12.27;;;21.40;99.90;;;;;;5034246;28;20356;-76
2021/05/29 10:32:27;;;;;;;11.95;10.75;;;21.40;99.90;;;;;;5016147;28;20479;-76
2021/05/29 10:35:08;;;;;;;11.65;10.30;;;21.40;99.90;;;;;;5016188;28;20036;-79
2021/05/29 10:37:39;;;;;;;10.52;9.35;;;21.50;99.90;;;;;;5016714;28;20049;-75
2021/05/29 10:40:26;;;;;;;11.10;9.95;;;21.50;99.90;;;;;;5033671;28;20079;-84
2021/05/29 10:43:19;;;;;;;10.30;8.95;;;21.50;98.90;;;;;;5033631;28;20045;-72
2021/05/29 10:45:52;;;;;;;10.02;8.68;;;21.60;98.60;;;;;;5031699;28;20030;-77
2021/05/29 10:48:19;;;;;;;10.90;9.80;;;21.60;98.30;;;;;;5033560;28;20037;-73
2021/05/29 10:53:42;;;;;;;10.65;9.45;;;21.70;97.80;;;;;;5033444;28;20025;-78
2021/05/29 10:56:16;;;;;;;11.07;9.98;;;21.70;97.70;;;;;;5033241;28;20383;-76
2021/05/29 10:59:08;;;;;;;12.23;9.77;;;21.80;97.60;;;;;;5033224;28;20013;-74
2021/05/29 11:01:37;;;;;;;12.15;10.48;;;21.90;97.50;;;;;;5032398;28;20032;-75
2021/05/29 11:04:13;;;;;;;11.38;10.20;;;22.00;97.00;;;;;;5032271;28;20033;-73
2021/05/29 11:06:41;;;;;;;12.85;11.10;;;22.10;97.10;;;;;;5031687;28;20029;-74
2021/05/29 11:09:07;;;;;;;14.63;11.88;;;22.20;96.70;;;;;;5032498;28;20028;-81
2021/05/29 11:11:36;;;;;;;14.30;12.80;;;22.20;96.80;;;;;;4999164;28;20040;-74
2021/05/29 11:14:11;;;;;;;14.27;12.77;;;22.30;96.60;;;;;;5033117;28;20109;-76
2021/05/29 11:16:46;;;;;;;13.82;12.20;;;22.40;96.30;;;;;;5014710;28;20034;-77
2021/05/29 11:19:14;;;;;;;12.68;11.45;;;22.40;96.20;;;;;;5032765;28;20072;-77
2021/05/29 11:22:03;;;;;;;12.18;10.90;;;22.30;96.20;;;;;;5033139;28;20399;-73
2021/05/29 11:24:41;;;;;;;11.68;10.48;;;22.20;96.30;;;;;;5015559;28;20033;-82
2021/05/29 11:27:20;;;;;;;11.77;10.57;;;22.20;96.30;;;;;;5033546;28;20123;-75
2021/05/29 11:29:49;;;;;;;10.00;9.00;;;22.10;96.10;;;;;;5032987;28;20029;-75
2021/05/29 11:32:15;;;;;;;9.90;8.77;;;22.00;96.30;;;;;;5033541;28;20065;-76
2021/05/29 11:34:46;;;;;;;9.48;8.52;;;22.00;96.60;;;;;;5034141;28;20107;-74
2021/05/29 11:37:15;;;;;;;9.05;7.40;;;22.00;96.60;;;;;;5033660;28;20444;-77
2021/05/29 11:39:56;;;;;;;9.83;8.80;;;22.10;97.00;;;;;;5033541;28;20025;-76
2021/05/29 11:42:21;;;;;;;9.00;8.15;;;22.20;96.50;;;;;;5033464;28;20263;-73
2021/05/29 11:44:47;;;;;;;8.43;7.40;;;22.20;96.10;;;;;;5034050;28;20403;-75
2021/05/29 11:47:23;;;;;;;8.68;7.78;;;22.30;96.10;;;;;;5033868;28;20095;-76
2021/05/29 11:49:49;;;;;;;7.72;6.93;;;22.30;95.50;;;;;;4999766;28;20037;-86
2021/05/29 11:52:15;;;;;;;7.70;7.00;;;22.40;95.60;;;;;;5033619;28;20029;-74
2021/05/29 11:54:40;;;;;;;7.53;6.70;;;22.40;95.00;;;;;;5015697;28;20021;-74
2021/05/29 11:57:09;;;;;;;6.70;6.05;;;22.40;94.80;;;;;;4999743;28;20072;-80
2021/05/29 11:59:39;;;;;;;8.50;6.10;;;22.40;95.20;;;;;;5016180;28;20033;-73
2021/05/29 12:02:05;;;;;;;7.38;6.60;;;22.40;95.50;;;;;;5033431;28;20041;-79
2021/05/29 12:04:31;;;;;;;6.78;6.03;;;22.60;95.50;;;;;;5015742;28;20475;-73
2021/05/29 12:07:02;;;;;;;7.18;6.45;;;23.00;95.40;;;;;;4999487;28;20427;-79
2021/05/29 12:09:41;;;;;;;6.38;5.78;;;23.50;95.20;;;;;;5015979;28;20033;-71
2021/05/29 12:12:13;;;;;;;5.85;5.25;;;24.30;94.70;;;;;;5014907;28;20545;-70
2021/05/29 12:14:43;;;;;;;6.10;5.50;;;25.00;93.70;;;;;;5033298;28;20351;-70
2021/05/29 12:17:12;;;;;;;6.72;6.03;;;25.60;92.10;;;;;;5033541;28;20091;-71
2021/05/29 12:19:53;;;;;;;6.68;5.90;;;26.10;91.60;;;;;;5033571;28;20026;-71
2021/05/29 12:22:27;;;;;;;7.55;6.20;;;26.20;89.90;;;;;;5033767;28;20025;-72
2021/05/29 12:24:58;;;;;;;6.88;4.97;;;25.90;89.50;;;;;;5015686;28;20083;-71
2021/05/29 12:27:28;;;;;;;4.90;4.47;;;25.40;89.20;;;;;;5034393;28;20495;-78
2021/05/29 12:30:04;;;;;;;5.85;5.25;;;25.00;90.30;;;;;;5035113;28;20037;-72
2021/05/29 12:32:39;;;;;;;5.60;5.10;;;24.70;90.20;;;;;;5034563;28;20827;-70
2021/05/29 12:35:27;;;;;;;4.90;4.50;;;24.40;91.00;;;;;;5035506;28;20033;-71
2021/05/29 12:37:57;;;;;;;5.60;4.30;;;24.10;91.40;;;;;;5034378;28;20040;-78
2021/05/29 12:40:24;;;;;;;4.20;3.80;;;23.90;91.90;;;;;;5035492;28;20057;-72
2021/05/29 12:42:53;;;;;;;4.10;3.70;;;23.80;92.20;;;;;;5035651;28;20542;-70
2021/05/29 12:45:28;;;;;;;3.50;3.20;;;24.10;91.50;;;;;;5034843;28;20021;-74
2021/05/29 12:48:10;;;;;;;3.53;3.22;;;24.20;91.20;;;;;;5034172;28;20394;-74
2021/05/29 12:53:51;;;;;;;3.50;2.83;;;24.10;91.20;;;;;;4955118;29;20123;-76
2021/05/29 12:56:18;;;;;;;4.57;3.65;;;23.80;91.30;;;;;;5021167;28;20039;-73
2021/05/29 12:59:07;;;;;;;4.18;3.78;;;23.60;91.20;;;;;;5034831;28;20048;-78
2021/05/29 13:01:56;;;;;;;3.45;3.15;;;23.50;91.40;;;;;;5034828;28;20130;-71
2021/05/29 13:07:28;;;;;;;3.40;3.10;;;23.40;91.50;;;;;;5035612;28;20036;-73
2021/05/29 13:10:07;;;;;;;3.72;3.03;;;23.50;91.30;;;;;;5034670;28;20194;-74
2021/05/29 13:12:37;;;;;;;3.47;3.07;;;23.50;90.80;;;;;;5033463;28;20089;-73